createdAt,value
2018-07-27T00:00:40.885Z,77.19
2018-07-27T00:03:08.775Z,77.20
2018-07-27T00:05:36.644Z,76.19
2018-07-27T00:08:04.625Z,75.92
2018-07-27T00:10:32.525Z,76.12
2018-07-27T00:13:00.395Z,75.33
2018-07-27T00:15:28.277Z,75.18
2018-07-27T00:17:56.166Z,74.98
2018-07-27T00:20:23.981Z,74.61
2018-07-27T00:22:51.908Z,74.55
2018-07-27T00:25:19.737Z,74.15
2018-07-27T00:27:47.637Z,73.75
2018-07-27T00:30:15.506Z,74.40
2018-07-27T00:32:43.397Z,74.29
2018-07-27T00:35:11.240Z,74.82
2018-07-27T00:37:39.094Z,74.95
2018-07-27T00:40:06.959Z,75.08
2018-07-27T00:42:34.830Z,76.41
2018-07-27T00:45:02.690Z,75.77
2018-07-27T00:47:30.609Z,75.68
2018-07-27T00:49:58.430Z,76.18
2018-07-27T00:52:26.246Z,76.50
2018-07-27T00:54:54.179Z,76.02
2018-07-27T00:57:22.057Z,75.96
2018-07-27T00:59:49.905Z,75.64
2018-07-27T01:02:17.797Z,76.33
2018-07-27T01:04:45.641Z,75.12
2018-07-27T01:07:13.514Z,74.54
2018-07-27T01:09:41.409Z,74.28
2018-07-27T01:12:09.279Z,73.89
2018-07-27T01:14:37.099Z,73.46
2018-07-27T01:17:04.959Z,74.35
2018-07-27T01:19:32.844Z,74.77
2018-07-27T01:22:00.785Z,74.36
2018-07-27T01:24:28.638Z,74.68
2018-07-27T01:26:56.508Z,74.71
2018-07-27T01:29:24.372Z,75.44
2018-07-27T01:31:52.199Z,74.33
2018-07-27T01:34:20.079Z,73.64
2018-07-27T01:36:47.910Z,73.82
2018-07-27T01:39:15.740Z,73.83
2018-07-27T01:41:43.773Z,73.13
2018-07-27T01:44:11.892Z,73.54
2018-07-27T01:46:40.377Z,73.02
2018-07-27T01:49:09.010Z,73.62
2018-07-27T01:51:36.848Z,72.95
2018-07-27T01:54:04.852Z,74.26
2018-07-27T01:56:32.915Z,74.15
2018-07-27T01:59:00.856Z,74.03
2018-07-27T02:01:28.693Z,75.06
2018-07-27T02:03:56.563Z,75.24
2018-07-27T02:06:24.465Z,74.68
2018-07-27T02:08:52.305Z,74.36
2018-07-27T02:11:20.173Z,74.79
2018-07-27T02:13:48.041Z,74.51
2018-07-27T02:16:15.870Z,75.01
2018-07-27T02:18:43.727Z,75.47
2018-07-27T02:21:11.540Z,75.82
2018-07-27T02:23:41.418Z,75.85
2018-07-27T02:26:09.231Z,76.36
2018-07-27T02:28:37.109Z,76.24
2018-07-27T02:31:05.141Z,77.07
2018-07-27T02:33:32.996Z,77.50
2018-07-27T02:36:00.918Z,76.91
2018-07-27T02:38:28.777Z,76.02
2018-07-27T02:40:56.604Z,76.26
2018-07-27T02:43:24.434Z,75.74
2018-07-27T02:45:52.270Z,75.98
2018-07-27T02:48:20.138Z,75.64
2018-07-27T02:50:47.961Z,75.30
2018-07-27T02:53:15.803Z,75.30
2018-07-27T02:55:43.658Z,75.25
2018-07-27T02:58:11.514Z,74.80
2018-07-27T03:00:39.384Z,74.18
2018-07-27T03:03:07.265Z,74.55
2018-07-27T03:05:35.086Z,74.12
2018-07-27T03:08:02.931Z,74.33
2018-07-27T03:10:30.846Z,74.49
2018-07-27T03:12:58.748Z,73.77
2018-07-27T03:15:26.635Z,73.01
2018-07-27T03:17:54.558Z,71.14
2018-07-27T03:20:22.441Z,69.26
2018-07-27T03:22:50.305Z,66.23
2018-07-27T03:25:18.214Z,63.53
2018-07-27T03:27:46.089Z,62.79
2018-07-27T03:30:14.061Z,61.96
2018-07-27T03:32:41.943Z,60.20
2018-07-27T03:35:09.792Z,57.92
2018-07-27T03:37:37.754Z,59.96
2018-07-27T03:40:05.725Z,62.33
2018-07-27T03:42:33.579Z,63.63
2018-07-27T03:45:01.431Z,64.82
2018-07-27T03:47:29.293Z,65.16
2018-07-27T03:49:57.167Z,65.74
2018-07-27T03:52:24.982Z,65.62
2018-07-27T03:54:52.802Z,65.89
2018-07-27T03:57:20.639Z,65.61
2018-07-27T03:59:48.497Z,65.31
2018-07-27T04:02:16.579Z,65.07
2018-07-27T04:04:44.438Z,65.49
2018-07-27T04:07:12.337Z,67.02
2018-07-27T04:09:40.249Z,66.65
2018-07-27T04:12:08.144Z,66.03
2018-07-27T04:14:36.044Z,65.07
2018-07-27T04:17:03.905Z,64.98
2018-07-27T04:19:31.786Z,62.98
2018-07-27T04:21:59.929Z,62.95
2018-07-27T04:24:27.784Z,60.43
2018-07-27T04:26:55.626Z,59.32
2018-07-27T04:29:23.473Z,57.40
2018-07-27T04:31:51.382Z,49.32
2018-07-27T04:34:19.275Z,41.81
2018-07-27T04:36:47.244Z,34.01
2018-07-27T04:39:15.111Z,28.29
2018-07-27T04:41:42.951Z,26.86
2018-07-27T04:44:10.778Z,25.63
2018-07-27T04:46:38.690Z,26.13
2018-07-27T04:49:06.535Z,28.84
2018-07-27T04:51:34.394Z,30.61
2018-07-27T04:54:02.236Z,29.16
2018-07-27T04:56:30.131Z,30.47
2018-07-27T04:58:58.006Z,33.17
2018-07-27T05:01:25.894Z,31.14
2018-07-27T05:03:55.510Z,29.09
2018-07-27T05:06:23.420Z,27.84
2018-07-27T05:08:56.786Z,26.76
2018-07-27T05:11:24.643Z,25.92
2018-07-27T05:13:52.532Z,29.43
2018-07-27T05:16:20.412Z,37.21
2018-07-27T05:18:48.277Z,38.78
2018-07-27T05:21:16.135Z,40.91
2018-07-27T05:23:43.965Z,41.64
2018-07-27T05:26:11.818Z,38.82
2018-07-27T05:28:39.675Z,39.37
2018-07-27T05:31:07.537Z,38.39
2018-07-27T05:33:35.355Z,35.46
2018-07-27T05:36:03.282Z,32.31
2018-07-27T05:38:31.126Z,30.43
2018-07-27T05:40:58.986Z,30.54
2018-07-27T05:43:26.849Z,31.48
2018-07-27T05:45:54.690Z,30.65
2018-07-27T05:48:22.528Z,31.93
2018-07-27T05:50:50.389Z,32.70
2018-07-27T05:53:18.290Z,32.60
2018-07-27T05:55:46.104Z,32.24
2018-07-27T05:58:13.949Z,33.08
2018-07-27T06:00:41.766Z,30.36
2018-07-27T06:03:09.695Z,32.47
2018-07-27T06:05:37.570Z,33.17
2018-07-27T06:08:05.453Z,37.14
2018-07-27T06:10:33.372Z,39.15
2018-07-27T06:13:01.341Z,41.83
2018-07-27T06:15:29.193Z,45.58
2018-07-27T06:17:57.084Z,50.22
2018-07-27T06:20:24.909Z,48.20
2018-07-27T06:22:52.829Z,46.08
2018-07-27T06:25:20.721Z,43.15
2018-07-27T06:27:48.587Z,44.08
2018-07-27T06:30:16.523Z,42.03
2018-07-27T06:32:44.368Z,40.44
2018-07-27T06:35:12.272Z,42.35
2018-07-27T06:37:40.195Z,45.72
2018-07-27T06:40:08.095Z,48.14
2018-07-27T06:42:35.933Z,45.27
2018-07-27T06:45:05.098Z,42.55
2018-07-27T06:47:32.989Z,39.67
2018-07-27T06:50:00.853Z,40.07
2018-07-27T06:52:28.764Z,44.30
2018-07-27T06:54:56.621Z,41.44
2018-07-27T06:57:24.474Z,41.07
2018-07-27T06:59:52.325Z,42.42
2018-07-27T07:02:20.162Z,40.28
2018-07-27T07:04:48.024Z,37.54
2018-07-27T07:07:15.907Z,39.15
2018-07-27T07:09:43.710Z,39.70
2018-07-27T07:12:11.537Z,40.53
2018-07-27T07:14:39.373Z,42.95
2018-07-27T07:17:07.268Z,43.36
2018-07-27T07:19:35.121Z,45.43
2018-07-27T07:22:03.006Z,44.79
2018-07-27T07:24:30.841Z,41.29
2018-07-27T07:26:58.694Z,40.97
2018-07-27T07:29:26.527Z,41.72
2018-07-27T07:31:54.396Z,41.60
2018-07-27T07:34:22.230Z,39.70
2018-07-27T07:36:50.083Z,40.87
2018-07-27T07:39:17.957Z,38.81
2018-07-27T07:41:45.816Z,36.50
2018-07-27T07:44:13.675Z,36.32
2018-07-27T07:46:41.549Z,38.98
2018-07-27T07:49:09.452Z,40.08
2018-07-27T07:51:37.858Z,43.42
2018-07-27T07:54:05.855Z,41.24
2018-07-27T07:56:33.990Z,41.31
2018-07-27T07:59:02.219Z,40.25
2018-07-27T08:01:30.244Z,39.38
2018-07-27T08:03:58.122Z,41.43
2018-07-27T08:06:26.018Z,43.61
2018-07-27T08:08:54.454Z,43.44
2018-07-27T08:11:22.313Z,41.71
2018-07-27T08:13:50.241Z,41.82
2018-07-27T08:16:18.128Z,41.88
2018-07-27T08:18:45.989Z,38.28
2018-07-27T08:21:14.306Z,41.27
2018-07-27T08:23:42.276Z,39.95
2018-07-27T08:26:34.437Z,39.00
2018-07-27T08:29:02.505Z,40.12
2018-07-27T08:31:31.013Z,39.10
2018-07-27T08:33:58.861Z,39.42
2018-07-27T08:36:27.484Z,39.15
2018-07-27T08:38:55.675Z,39.29
2018-07-27T08:41:23.937Z,43.69
2018-07-27T08:43:52.433Z,47.30
2018-07-27T08:46:20.646Z,48.06
2018-07-27T08:48:48.740Z,50.53
2018-07-27T08:51:16.922Z,50.82
2018-07-27T08:53:45.053Z,50.09
2018-07-27T08:56:13.251Z,48.40
2018-07-27T08:58:41.363Z,47.94
2018-07-27T09:01:09.561Z,46.84
2018-07-27T09:03:37.718Z,46.00
2018-07-27T09:06:06.126Z,43.71
2018-07-27T09:08:34.232Z,45.01
2018-07-27T09:11:02.313Z,44.45
2018-07-27T09:13:30.601Z,46.37
2018-07-27T09:15:58.719Z,47.18
2018-07-27T09:18:26.876Z,46.17
2018-07-27T09:20:55.032Z,48.25
2018-07-27T09:23:23.196Z,43.56
2018-07-27T09:25:51.296Z,44.59
2018-07-27T09:28:19.387Z,47.87
2018-07-27T09:30:47.546Z,49.52
2018-07-27T09:33:16.011Z,47.83
2018-07-27T09:35:44.178Z,47.44
2018-07-27T09:38:12.269Z,50.61
2018-07-27T09:40:40.383Z,46.80
2018-07-27T09:43:08.454Z,46.98
2018-07-27T09:45:36.581Z,46.25
2018-07-27T09:48:04.794Z,43.39
2018-07-27T09:50:32.933Z,42.90
2018-07-27T09:53:01.018Z,42.50
2018-07-27T09:55:29.117Z,45.86
2018-07-27T09:57:57.206Z,43.77
2018-07-27T10:00:31.006Z,41.36
2018-07-27T10:02:59.129Z,42.21
2018-07-27T10:05:27.216Z,44.43
2018-07-27T10:07:55.357Z,46.80
2018-07-27T10:10:23.483Z,47.91
2018-07-27T10:12:51.895Z,47.05
2018-07-27T10:15:20.001Z,41.62
2018-07-27T10:17:48.558Z,43.24
2018-07-27T10:20:16.715Z,43.59
2018-07-27T10:22:44.857Z,42.62
2018-07-27T10:25:12.925Z,41.81
2018-07-27T10:27:41.134Z,41.40
2018-07-27T10:30:09.261Z,40.92
2018-07-27T10:32:37.455Z,38.70
2018-07-27T10:35:05.573Z,40.05
2018-07-27T10:37:33.769Z,37.58
2018-07-27T10:40:01.910Z,39.57
2018-07-27T10:42:30.105Z,40.36
2018-07-27T10:44:58.284Z,39.98
2018-07-27T10:47:26.457Z,42.70
2018-07-27T10:49:54.543Z,42.54
2018-07-27T10:52:22.726Z,40.97
2018-07-27T10:54:50.910Z,40.36
2018-07-27T10:57:19.054Z,43.71
2018-07-27T10:59:47.237Z,41.95
2018-07-27T11:02:15.416Z,40.96
2018-07-27T11:04:43.546Z,40.92
2018-07-27T11:07:11.705Z,40.38
2018-07-27T11:09:39.868Z,41.13
2018-07-27T11:12:08.061Z,44.38
2018-07-27T11:14:37.062Z,42.18
2018-07-27T11:17:05.172Z,42.98
2018-07-27T11:19:33.675Z,41.80
2018-07-27T11:22:01.781Z,40.50
2018-07-27T11:24:29.893Z,38.92
2018-07-27T11:26:58.013Z,38.71
2018-07-27T11:29:26.186Z,38.66
2018-07-27T11:31:54.493Z,38.69
2018-07-27T11:34:22.605Z,38.15
2018-07-27T11:36:50.723Z,38.14
2018-07-27T11:39:18.862Z,38.01
2018-07-27T11:41:47.495Z,38.03
2018-07-27T11:44:15.685Z,38.71
2018-07-27T11:46:43.746Z,40.57
2018-07-27T11:49:11.936Z,39.24
2018-07-27T11:51:39.995Z,37.66
2018-07-27T11:54:08.206Z,36.07
2018-07-27T11:56:36.286Z,35.78
2018-07-27T11:59:04.511Z,34.39
2018-07-27T12:01:32.656Z,35.71
2018-07-27T12:04:00.761Z,37.04
2018-07-27T12:06:29.041Z,36.87
2018-07-27T12:08:57.169Z,35.28
2018-07-27T12:11:25.318Z,35.40
2018-07-27T12:13:53.432Z,34.30
2018-07-27T12:16:21.566Z,33.01
2018-07-27T12:18:49.679Z,32.79
2018-07-27T12:21:17.913Z,33.04
2018-07-27T12:23:46.005Z,34.36
2018-07-27T12:26:14.110Z,33.73
2018-07-27T12:28:42.189Z,35.54
2018-07-27T12:31:10.296Z,39.85
2018-07-27T12:33:38.357Z,39.54
2018-07-27T12:36:06.611Z,38.00
2018-07-27T12:38:35.083Z,37.25
2018-07-27T12:41:03.168Z,37.62
2018-07-27T12:43:31.292Z,36.02
2018-07-27T12:45:59.348Z,37.37
2018-07-27T12:48:27.292Z,37.22
2018-07-27T12:50:55.288Z,34.82
2018-07-27T12:53:23.143Z,35.91
2018-07-27T12:55:51.028Z,36.09
2018-07-27T12:58:18.896Z,38.63
2018-07-27T13:00:46.749Z,38.41
2018-07-27T13:03:14.635Z,40.98
2018-07-27T13:05:42.537Z,40.79
2018-07-27T13:08:10.416Z,48.54
2018-07-27T13:10:38.242Z,53.59
2018-07-27T13:13:06.128Z,57.29
2018-07-27T13:15:33.970Z,58.60
2018-07-27T13:18:02.172Z,56.32
2018-07-27T13:20:41.187Z,60.85
2018-07-27T13:23:09.112Z,56.78
2018-07-27T13:25:36.919Z,56.25
2018-07-27T13:30:32.755Z,57.86
2018-07-27T13:35:28.323Z,59.18
2018-07-27T13:37:56.186Z,59.54
2018-07-27T13:40:24.033Z,61.69
2018-07-27T13:42:52.041Z,61.73
2018-07-27T13:45:20.041Z,63.30
2018-07-27T13:47:48.062Z,60.97
2018-07-27T13:50:15.992Z,62.34
2018-07-27T13:52:43.997Z,59.97
2018-07-27T13:55:11.935Z,57.73
2018-07-27T13:57:39.842Z,56.56
2018-07-27T14:00:07.867Z,55.04
2018-07-27T14:02:35.802Z,55.16
2018-07-27T14:05:03.855Z,55.96
2018-07-27T14:07:31.955Z,55.97
2018-07-27T14:09:59.980Z,58.18
2018-07-27T14:12:27.989Z,59.17
2018-07-27T14:14:55.944Z,56.40
2018-07-27T14:17:23.790Z,56.86
2018-07-27T14:19:51.637Z,57.42
2018-07-27T14:22:19.476Z,56.23
2018-07-27T14:24:47.290Z,56.59
2018-07-27T14:27:15.115Z,56.70
2018-07-27T14:29:43.138Z,58.43
2018-07-27T14:32:10.977Z,57.75
2018-07-27T14:34:38.785Z,58.63
2018-07-27T14:37:06.662Z,60.00
2018-07-27T14:39:34.523Z,62.12
2018-07-27T14:42:02.506Z,62.38
2018-07-27T14:44:30.434Z,65.03
2018-07-27T14:46:58.225Z,65.58
2018-07-27T14:49:26.049Z,67.65
2018-07-27T14:51:53.914Z,68.12
2018-07-27T14:54:21.742Z,67.59
2018-07-27T14:56:49.570Z,67.98
2018-07-27T14:59:17.697Z,69.15
2018-07-27T15:01:45.547Z,70.84
2018-07-27T15:04:13.390Z,69.76
2018-07-27T15:06:41.300Z,68.92
2018-07-27T15:09:13.133Z,67.86
2018-07-27T15:11:41.614Z,68.14
2018-07-27T15:14:09.534Z,70.60
2018-07-27T15:16:37.494Z,67.69
2018-07-27T15:19:05.379Z,64.99
2018-07-27T15:21:33.227Z,68.22
2018-07-27T15:24:01.143Z,66.23
2018-07-27T15:26:29.226Z,69.82
2018-07-27T15:28:57.218Z,67.62
2018-07-27T15:31:25.041Z,66.29
2018-07-27T15:33:52.912Z,66.94
2018-07-27T15:36:20.829Z,65.42
2018-07-27T15:38:48.700Z,65.87
2018-07-27T15:41:16.520Z,62.29
2018-07-27T15:43:44.389Z,65.31
2018-07-27T15:46:12.261Z,67.22
2018-07-27T15:48:40.142Z,67.62
2018-07-27T15:51:08.059Z,67.45
2018-07-27T15:53:35.897Z,67.92
2018-07-27T15:56:03.734Z,67.99
2018-07-27T15:58:31.613Z,66.93
2018-07-27T16:00:59.506Z,65.16
2018-07-27T16:03:27.369Z,64.79
2018-07-27T16:05:55.190Z,64.62
2018-07-27T16:08:23.022Z,60.90
2018-07-27T16:10:50.894Z,60.74
2018-07-27T16:13:18.741Z,62.09
2018-07-27T16:15:46.754Z,60.03
2018-07-27T16:18:14.645Z,59.41
2018-07-27T16:20:42.493Z,60.81
2018-07-27T16:23:10.369Z,61.96
2018-07-27T16:25:38.272Z,62.50
2018-07-27T16:28:06.090Z,61.84
2018-07-27T16:30:33.921Z,63.17
2018-07-27T16:33:01.924Z,66.54
2018-07-27T16:35:29.790Z,68.70
2018-07-27T16:37:57.789Z,68.86
2018-07-27T16:40:25.677Z,69.35
2018-07-27T16:42:53.509Z,70.30
2018-07-27T16:45:21.344Z,70.28
2018-07-27T16:47:49.400Z,70.19
2018-07-27T16:50:17.366Z,71.01
2018-07-27T16:52:45.227Z,69.92
2018-07-27T16:55:13.144Z,70.39
2018-07-27T16:57:41.020Z,70.15
2018-07-27T17:00:08.941Z,70.43
2018-07-27T17:02:36.797Z,70.79
2018-07-27T17:05:05.042Z,70.06
2018-07-27T17:07:32.999Z,69.02
2018-07-27T17:10:00.920Z,69.60
2018-07-27T17:12:28.782Z,70.87
2018-07-27T17:14:56.617Z,70.46
2018-07-27T17:17:24.535Z,71.54
2018-07-27T17:19:52.467Z,71.62
2018-07-27T17:22:20.368Z,73.00
2018-07-27T17:24:48.321Z,72.78
2018-07-27T17:27:16.226Z,73.25
2018-07-27T17:29:44.274Z,72.92
2018-07-27T17:32:12.172Z,73.11
2018-07-27T17:34:40.061Z,72.89
2018-07-27T17:37:08.008Z,72.66
2018-07-27T17:39:35.944Z,72.25
2018-07-27T17:42:03.875Z,72.52
2018-07-27T17:44:31.792Z,72.01
2018-07-27T17:47:00.719Z,71.26
2018-07-27T17:49:28.600Z,71.65
2018-07-27T17:51:56.497Z,70.66
2018-07-27T17:54:24.408Z,70.44
2018-07-27T17:56:52.256Z,72.79
2018-07-27T17:59:20.113Z,74.01
2018-07-27T18:01:48.079Z,73.37
2018-07-27T18:04:15.945Z,73.69
2018-07-27T18:06:43.877Z,74.46
2018-07-27T18:09:12.532Z,73.59
2018-07-27T18:11:40.352Z,74.49
2018-07-27T18:14:08.282Z,73.54
2018-07-27T18:16:36.166Z,72.72
2018-07-27T18:19:04.121Z,73.53
2018-07-27T18:21:32.062Z,72.89
2018-07-27T18:23:59.935Z,72.81
2018-07-27T18:26:27.833Z,74.53
2018-07-27T18:28:55.733Z,75.84
2018-07-27T18:31:23.632Z,75.24
2018-07-27T18:33:51.480Z,73.22
2018-07-27T18:36:19.338Z,72.85
2018-07-27T18:38:47.190Z,73.15
2018-07-27T18:41:15.059Z,72.34
2018-07-27T18:43:42.942Z,73.02
2018-07-27T18:46:10.810Z,72.97
2018-07-27T18:48:38.880Z,71.90
2018-07-27T18:51:06.810Z,71.69
2018-07-27T18:53:34.708Z,73.40
2018-07-27T18:56:02.546Z,73.39
2018-07-27T18:58:30.382Z,73.75
2018-07-27T19:00:58.224Z,74.58
2018-07-27T19:03:26.079Z,74.83
2018-07-27T19:05:53.934Z,75.37
2018-07-27T19:08:21.801Z,73.96
2018-07-27T19:10:49.695Z,73.60
2018-07-27T19:13:17.653Z,74.05
2018-07-27T19:15:45.576Z,74.79
2018-07-27T19:18:13.465Z,74.90
2018-07-27T19:20:41.304Z,74.42
2018-07-27T19:23:09.233Z,73.55
2018-07-27T19:25:37.097Z,73.86
2018-07-27T19:28:05.323Z,73.67
2018-07-27T19:30:33.252Z,75.99
2018-07-27T19:33:01.153Z,75.14
2018-07-27T19:35:29.025Z,74.97
2018-07-27T19:37:56.910Z,74.38
2018-07-27T19:40:24.824Z,73.66
2018-07-27T19:42:52.689Z,72.79
2018-07-27T19:45:20.603Z,71.82
2018-07-27T19:47:48.549Z,71.76
2018-07-27T19:50:16.423Z,71.62
2018-07-27T19:52:44.300Z,71.28
2018-07-27T19:55:12.155Z,70.85
2018-07-27T19:57:40.060Z,72.21
2018-07-27T20:00:08.221Z,72.60
2018-07-27T20:02:36.131Z,73.35
2018-07-27T20:05:04.184Z,73.20
2018-07-27T20:07:32.107Z,73.05
2018-07-27T20:09:59.999Z,73.94
2018-07-27T20:12:27.941Z,75.70
2018-07-27T20:14:55.824Z,75.19
2018-07-27T20:17:23.690Z,74.20
2018-07-27T20:19:51.569Z,74.19
2018-07-27T20:22:19.545Z,74.95
2018-07-27T20:24:47.445Z,74.83
2018-07-27T20:27:15.321Z,74.41
2018-07-27T20:29:43.189Z,74.90
2018-07-27T20:32:11.077Z,76.01
2018-07-27T20:34:38.953Z,76.52
2018-07-27T20:37:06.838Z,76.09
2018-07-27T20:39:34.708Z,76.40
2018-07-27T20:42:02.608Z,76.50
2018-07-27T20:44:30.497Z,77.50
2018-07-27T20:46:58.417Z,76.43
2018-07-27T20:49:26.269Z,75.98
2018-07-27T20:51:54.689Z,75.88
2018-07-27T20:54:22.592Z,75.16
2018-07-27T20:56:50.490Z,75.89
2018-07-27T20:59:18.418Z,76.48
2018-07-27T21:01:46.277Z,76.37
2018-07-27T21:04:14.169Z,76.17
2018-07-27T21:06:42.397Z,75.96
2018-07-27T21:09:11.364Z,76.03
2018-07-27T21:11:39.520Z,75.98
2018-07-27T21:14:07.701Z,75.07
2018-07-27T21:16:35.666Z,75.75
2018-07-27T21:19:03.625Z,75.37
2018-07-27T21:21:31.467Z,74.74
2018-07-27T21:23:59.344Z,75.18
2018-07-27T21:26:27.486Z,75.59
2018-07-27T21:28:55.340Z,75.30
2018-07-27T21:31:23.224Z,75.07
2018-07-27T21:33:51.076Z,74.72
2018-07-27T21:36:18.922Z,74.88
2018-07-27T21:38:46.753Z,74.58
2018-07-27T21:41:14.623Z,74.05
2018-07-27T21:43:42.503Z,74.90
2018-07-27T21:46:10.352Z,77.35
2018-07-27T21:48:38.246Z,77.85
2018-07-27T21:51:06.132Z,78.40
2018-07-27T21:53:34.056Z,78.43
2018-07-27T21:56:01.949Z,77.16
2018-07-27T21:58:29.844Z,77.10
2018-07-27T22:00:57.876Z,77.24
2018-07-27T22:03:25.786Z,77.62
2018-07-27T22:05:53.681Z,77.98
2018-07-27T22:08:21.583Z,76.99
2018-07-27T22:10:49.495Z,76.30
2018-07-27T22:13:17.357Z,77.01
2018-07-27T22:15:45.228Z,76.85
2018-07-27T22:18:13.073Z,76.47
2018-07-27T22:20:40.977Z,76.78
2018-07-27T22:23:08.808Z,76.80
2018-07-27T22:25:36.667Z,77.29
2018-07-27T22:28:04.580Z,77.45
2018-07-27T22:30:32.474Z,77.18
2018-07-27T22:33:00.333Z,76.35
2018-07-27T22:35:28.165Z,76.56
2018-07-27T22:37:55.982Z,76.31
2018-07-27T22:40:23.841Z,76.32
2018-07-27T22:42:51.680Z,75.95
2018-07-27T22:45:19.541Z,76.07
2018-07-27T22:47:47.345Z,75.55
2018-07-27T22:50:15.206Z,75.49
2018-07-27T22:52:43.038Z,76.00
2018-07-27T22:55:11.940Z,75.46
2018-07-27T22:57:40.869Z,75.49
2018-07-27T23:00:13.029Z,76.48
2018-07-27T23:02:41.388Z,76.42
2018-07-27T23:05:09.364Z,76.34
2018-07-27T23:07:37.733Z,76.25
2018-07-27T23:10:06.420Z,76.57
2018-07-27T23:12:34.261Z,75.76
2018-07-27T23:15:02.228Z,75.81
2018-07-27T23:17:30.123Z,75.80
2018-07-27T23:19:58.070Z,74.90
2018-07-27T23:22:26.023Z,74.92
2018-07-27T23:24:53.846Z,75.23
2018-07-27T23:27:21.765Z,74.39
2018-07-27T23:29:49.617Z,75.02
2018-07-27T23:32:17.442Z,75.05
2018-07-27T23:34:45.260Z,74.88
2018-07-27T23:37:13.081Z,74.39
2018-07-27T23:39:40.901Z,74.86
2018-07-27T23:42:08.775Z,74.09
2018-07-27T23:44:36.626Z,74.24
2018-07-27T23:47:04.498Z,74.11
2018-07-27T23:49:32.334Z,73.61
2018-07-27T23:52:00.338Z,73.83
2018-07-27T23:54:28.162Z,74.55
2018-07-27T23:56:55.986Z,75.67
2018-07-27T23:59:23.912Z,75.75
